sensor_id;sensor_type;location;lat;lon;timestamp;P1;durP1;ratioP1;P2;durP2;ratioP2
59145;SDS011;44928;53.074;6.646;2023-04-15T00:02:25;11.32;;;4.18;;
59145;SDS011;44928;53.074;6.646;2023-04-15T00:04:51;9.00;;;3.83;;
59145;SDS011;44928;53.074;6.646;2023-04-15T00:07:17;11.00;;;3.80;;
59145;SDS011;44928;53.074;6.646;2023-04-15T00:09:42;12.52;;;4.70;;
59145;SDS011;44928;53.074;6.646;2023-04-15T00:12:09;10.70;;;4.30;;
59145;SDS011;44928;53.074;6.646;2023-04-15T00:14:35;12.10;;;4.78;;
59145;SDS011;44928;53.074;6.646;2023-04-15T00:17:01;12.32;;;4.45;;
59145;SDS011;44928;53.074;6.646;2023-04-15T00:19:28;12.68;;;4.72;;
59145;SDS011;44928;53.074;6.646;2023-04-15T00:21:55;9.98;;;5.00;;
59145;SDS011;44928;53.074;6.646;2023-04-15T00:24:21;12.40;;;5.10;;
59145;SDS011;44928;53.074;6.646;2023-04-15T00:26:48;12.80;;;5.00;;
59145;SDS011;44928;53.074;6.646;2023-04-15T00:29:14;13.43;;;4.55;;
59145;SDS011;44928;53.074;6.646;2023-04-15T00:31:39;12.90;;;4.63;;
59145;SDS011;44928;53.074;6.646;2023-04-15T00:34:06;11.00;;;4.30;;
59145;SDS011;44928;53.074;6.646;2023-04-15T00:36:32;11.13;;;4.00;;
59145;SDS011;44928;53.074;6.646;2023-04-15T00:38:59;11.30;;;4.38;;
59145;SDS011;44928;53.074;6.646;2023-04-15T00:41:25;12.77;;;4.80;;
59145;SDS011;44928;53.074;6.646;2023-04-15T00:43:51;11.98;;;5.30;;
59145;SDS011;44928;53.074;6.646;2023-04-15T00:46:17;10.15;;;4.72;;
59145;SDS011;44928;53.074;6.646;2023-04-15T00:48:45;11.52;;;4.38;;
59145;SDS011;44928;53.074;6.646;2023-04-15T00:51:11;11.40;;;4.75;;
59145;SDS011;44928;53.074;6.646;2023-04-15T00:53:38;8.73;;;4.20;;
59145;SDS011;44928;53.074;6.646;2023-04-15T00:56:05;12.93;;;5.25;;
59145;SDS011;44928;53.074;6.646;2023-04-15T00:58:31;11.68;;;5.20;;
59145;SDS011;44928;53.074;6.646;2023-04-15T01:00:57;11.25;;;5.18;;
59145;SDS011;44928;53.074;6.646;2023-04-15T01:03:24;12.68;;;6.10;;
59145;SDS011;44928;53.074;6.646;2023-04-15T01:05:50;11.32;;;5.43;;
59145;SDS011;44928;53.074;6.646;2023-04-15T01:08:25;12.15;;;5.70;;
59145;SDS011;44928;53.074;6.646;2023-04-15T01:10:52;13.15;;;5.65;;
59145;SDS011;44928;53.074;6.646;2023-04-15T01:13:21;9.68;;;4.78;;
59145;SDS011;44928;53.074;6.646;2023-04-15T01:15:48;12.32;;;5.15;;
59145;SDS011;44928;53.074;6.646;2023-04-15T01:18:14;13.95;;;5.88;;
59145;SDS011;44928;53.074;6.646;2023-04-15T01:20:40;12.27;;;5.90;;
59145;SDS011;44928;53.074;6.646;2023-04-15T01:23:06;12.95;;;5.60;;
59145;SDS011;44928;53.074;6.646;2023-04-15T01:25:32;11.13;;;6.10;;
59145;SDS011;44928;53.074;6.646;2023-04-15T01:27:59;13.05;;;6.60;;
59145;SDS011;44928;53.074;6.646;2023-04-15T01:30:25;12.70;;;6.00;;
59145;SDS011;44928;53.074;6.646;2023-04-15T01:32:51;11.35;;;5.53;;
59145;SDS011;44928;53.074;6.646;2023-04-15T01:35:17;12.18;;;5.88;;
59145;SDS011;44928;53.074;6.646;2023-04-15T01:37:44;12.07;;;6.13;;
59145;SDS011;44928;53.074;6.646;2023-04-15T01:40:10;13.18;;;5.90;;
59145;SDS011;44928;53.074;6.646;2023-04-15T01:42:36;13.15;;;6.20;;
59145;SDS011;44928;53.074;6.646;2023-04-15T01:45:02;11.18;;;5.30;;
59145;SDS011;44928;53.074;6.646;2023-04-15T01:47:28;13.25;;;6.18;;
59145;SDS011;44928;53.074;6.646;2023-04-15T01:49:54;13.98;;;5.88;;
59145;SDS011;44928;53.074;6.646;2023-04-15T01:52:20;13.65;;;6.55;;
59145;SDS011;44928;53.074;6.646;2023-04-15T01:54:46;12.32;;;5.85;;
59145;SDS011;44928;53.074;6.646;2023-04-15T01:57:11;11.07;;;5.78;;
59145;SDS011;44928;53.074;6.646;2023-04-15T01:59:37;13.70;;;5.97;;
59145;SDS011;44928;53.074;6.646;2023-04-15T02:02:03;12.73;;;6.03;;
59145;SDS011;44928;53.074;6.646;2023-04-15T02:04:29;12.38;;;5.70;;
59145;SDS011;44928;53.074;6.646;2023-04-15T02:06:55;13.15;;;6.32;;
59145;SDS011;44928;53.074;6.646;2023-04-15T02:09:21;11.85;;;5.63;;
59145;SDS011;44928;53.074;6.646;2023-04-15T02:11:47;12.85;;;5.95;;
59145;SDS011;44928;53.074;6.646;2023-04-15T02:14:13;10.65;;;5.63;;
59145;SDS011;44928;53.074;6.646;2023-04-15T02:16:39;13.48;;;6.07;;
59145;SDS011;44928;53.074;6.646;2023-04-15T02:19:04;11.60;;;5.78;;
59145;SDS011;44928;53.074;6.646;2023-04-15T02:21:30;12.20;;;6.43;;
59145;SDS011;44928;53.074;6.646;2023-04-15T02:23:56;13.18;;;5.80;;
59145;SDS011;44928;53.074;6.646;2023-04-15T02:26:22;11.73;;;6.28;;
59145;SDS011;44928;53.074;6.646;2023-04-15T02:28:49;11.00;;;5.80;;
59145;SDS011;44928;53.074;6.646;2023-04-15T02:31:17;11.38;;;6.00;;
59145;SDS011;44928;53.074;6.646;2023-04-15T02:33:44;10.25;;;5.18;;
59145;SDS011;44928;53.074;6.646;2023-04-15T02:36:09;10.52;;;5.65;;
59145;SDS011;44928;53.074;6.646;2023-04-15T02:38:36;10.50;;;6.13;;
59145;SDS011;44928;53.074;6.646;2023-04-15T02:41:04;13.48;;;6.22;;
59145;SDS011;44928;53.074;6.646;2023-04-15T02:43:30;11.85;;;6.40;;
59145;SDS011;44928;53.074;6.646;2023-04-15T02:45:56;13.23;;;6.22;;
59145;SDS011;44928;53.074;6.646;2023-04-15T02:48:22;15.15;;;7.20;;
59145;SDS011;44928;53.074;6.646;2023-04-15T02:50:48;12.00;;;6.53;;
59145;SDS011;44928;53.074;6.646;2023-04-15T02:53:14;14.52;;;7.38;;
59145;SDS011;44928;53.074;6.646;2023-04-15T02:55:40;12.82;;;6.53;;
59145;SDS011;44928;53.074;6.646;2023-04-15T02:58:06;12.35;;;7.28;;
59145;SDS011;44928;53.074;6.646;2023-04-15T03:00:32;12.52;;;6.70;;
59145;SDS011;44928;53.074;6.646;2023-04-15T03:05:26;11.77;;;6.15;;
59145;SDS011;44928;53.074;6.646;2023-04-15T03:07:52;13.10;;;6.50;;
59145;SDS011;44928;53.074;6.646;2023-04-15T03:10:18;11.88;;;5.75;;
59145;SDS011;44928;53.074;6.646;2023-04-15T03:12:44;11.20;;;6.38;;
59145;SDS011;44928;53.074;6.646;2023-04-15T03:15:10;12.25;;;6.55;;
59145;SDS011;44928;53.074;6.646;2023-04-15T03:17:36;11.63;;;6.25;;
59145;SDS011;44928;53.074;6.646;2023-04-15T03:20:03;11.57;;;5.88;;
59145;SDS011;44928;53.074;6.646;2023-04-15T03:22:30;12.25;;;6.75;;
59145;SDS011;44928;53.074;6.646;2023-04-15T03:24:56;10.55;;;5.68;;
59145;SDS011;44928;53.074;6.646;2023-04-15T03:27:22;12.35;;;7.10;;
59145;SDS011;44928;53.074;6.646;2023-04-15T03:29:49;11.57;;;6.20;;
59145;SDS011;44928;53.074;6.646;2023-04-15T03:32:15;12.90;;;6.85;;
59145;SDS011;44928;53.074;6.646;2023-04-15T03:34:40;10.52;;;6.35;;
59145;SDS011;44928;53.074;6.646;2023-04-15T03:37:06;11.48;;;6.35;;
59145;SDS011;44928;53.074;6.646;2023-04-15T03:39:32;12.55;;;6.65;;
59145;SDS011;44928;53.074;6.646;2023-04-15T03:41:58;11.88;;;6.00;;
59145;SDS011;44928;53.074;6.646;2023-04-15T03:44:26;13.98;;;7.53;;
59145;SDS011;44928;53.074;6.646;2023-04-15T03:46:52;11.70;;;5.93;;
59145;SDS011;44928;53.074;6.646;2023-04-15T03:49:18;14.40;;;7.75;;
59145;SDS011;44928;53.074;6.646;2023-04-15T03:51:44;12.75;;;7.65;;
59145;SDS011;44928;53.074;6.646;2023-04-15T03:54:10;11.75;;;6.57;;
59145;SDS011;44928;53.074;6.646;2023-04-15T03:56:39;11.50;;;7.00;;
59145;SDS011;44928;53.074;6.646;2023-04-15T03:59:05;11.77;;;6.65;;
59145;SDS011;44928;53.074;6.646;2023-04-15T04:01:30;12.05;;;6.97;;
59145;SDS011;44928;53.074;6.646;2023-04-15T04:03:56;11.60;;;6.22;;
59145;SDS011;44928;53.074;6.646;2023-04-15T04:06:22;11.55;;;7.20;;
59145;SDS011;44928;53.074;6.646;2023-04-15T04:08:48;12.70;;;7.32;;
59145;SDS011;44928;53.074;6.646;2023-04-15T04:11:14;12.38;;;6.97;;
59145;SDS011;44928;53.074;6.646;2023-04-15T04:13:40;12.52;;;7.90;;
59145;SDS011;44928;53.074;6.646;2023-04-15T04:16:06;11.73;;;6.78;;
59145;SDS011;44928;53.074;6.646;2023-04-15T04:18:32;14.52;;;7.55;;
59145;SDS011;44928;53.074;6.646;2023-04-15T04:20:58;12.73;;;8.30;;
59145;SDS011;44928;53.074;6.646;2023-04-15T04:23:24;12.88;;;8.15;;
59145;SDS011;44928;53.074;6.646;2023-04-15T04:25:50;14.30;;;8.57;;
59145;SDS011;44928;53.074;6.646;2023-04-15T04:28:16;13.70;;;8.23;;
59145;SDS011;44928;53.074;6.646;2023-04-15T04:30:42;14.18;;;8.68;;
59145;SDS011;44928;53.074;6.646;2023-04-15T04:33:08;13.05;;;8.32;;
59145;SDS011;44928;53.074;6.646;2023-04-15T04:35:35;13.77;;;8.20;;
59145;SDS011;44928;53.074;6.646;2023-04-15T04:38:02;14.90;;;8.77;;
59145;SDS011;44928;53.074;6.646;2023-04-15T04:40:28;13.00;;;8.23;;
59145;SDS011;44928;53.074;6.646;2023-04-15T04:42:54;14.30;;;8.60;;
59145;SDS011;44928;53.074;6.646;2023-04-15T04:45:20;13.60;;;8.10;;
59145;SDS011;44928;53.074;6.646;2023-04-15T04:47:45;14.02;;;8.00;;
59145;SDS011;44928;53.074;6.646;2023-04-15T04:50:12;14.63;;;9.38;;
59145;SDS011;44928;53.074;6.646;2023-04-15T04:52:37;15.32;;;8.65;;
59145;SDS011;44928;53.074;6.646;2023-04-15T04:55:03;14.25;;;8.13;;
59145;SDS011;44928;53.074;6.646;2023-04-15T04:57:30;15.30;;;9.13;;
59145;SDS011;44928;53.074;6.646;2023-04-15T04:59:56;15.07;;;9.15;;
59145;SDS011;44928;53.074;6.646;2023-04-15T05:02:22;15.88;;;8.80;;
59145;SDS011;44928;53.074;6.646;2023-04-15T05:04:47;13.90;;;8.45;;
59145;SDS011;44928;53.074;6.646;2023-04-15T05:07:14;14.75;;;7.95;;
59145;SDS011;44928;53.074;6.646;2023-04-15T05:09:40;14.00;;;9.02;;
59145;SDS011;44928;53.074;6.646;2023-04-15T05:12:06;14.10;;;8.52;;
59145;SDS011;44928;53.074;6.646;2023-04-15T05:14:33;13.13;;;8.02;;
59145;SDS011;44928;53.074;6.646;2023-04-15T05:16:59;14.18;;;8.55;;
59145;SDS011;44928;53.074;6.646;2023-04-15T05:19:24;15.02;;;9.13;;
59145;SDS011;44928;53.074;6.646;2023-04-15T05:21:50;14.20;;;8.93;;
59145;SDS011;44928;53.074;6.646;2023-04-15T05:24:16;13.77;;;8.73;;
59145;SDS011;44928;53.074;6.646;2023-04-15T05:26:42;14.88;;;9.18;;
59145;SDS011;44928;53.074;6.646;2023-04-15T05:29:08;14.55;;;9.20;;
59145;SDS011;44928;53.074;6.646;2023-04-15T05:31:34;15.65;;;9.65;;
59145;SDS011;44928;53.074;6.646;2023-04-15T05:34:00;14.27;;;8.63;;
59145;SDS011;44928;53.074;6.646;2023-04-15T05:36:26;16.25;;;9.50;;
59145;SDS011;44928;53.074;6.646;2023-04-15T05:38:52;15.20;;;9.75;;
59145;SDS011;44928;53.074;6.646;2023-04-15T05:41:18;15.13;;;9.75;;
59145;SDS011;44928;53.074;6.646;2023-04-15T05:43:45;14.75;;;8.68;;
59145;SDS011;44928;53.074;6.646;2023-04-15T05:46:10;15.20;;;8.98;;
59145;SDS011;44928;53.074;6.646;2023-04-15T05:48:36;14.43;;;9.05;;
59145;SDS011;44928;53.074;6.646;2023-04-15T05:51:02;15.48;;;9.63;;
59145;SDS011;44928;53.074;6.646;2023-04-15T05:53:28;16.30;;;10.23;;
59145;SDS011;44928;53.074;6.646;2023-04-15T05:55:54;18.40;;;11.95;;
59145;SDS011;44928;53.074;6.646;2023-04-15T05:58:20;18.00;;;11.35;;
59145;SDS011;44928;53.074;6.646;2023-04-15T06:00:45;18.27;;;10.82;;
59145;SDS011;44928;53.074;6.646;2023-04-15T06:03:11;19.45;;;11.15;;
59145;SDS011;44928;53.074;6.646;2023-04-15T06:05:37;21.70;;;11.82;;
59145;SDS011;44928;53.074;6.646;2023-04-15T06:08:03;20.13;;;11.93;;
59145;SDS011;44928;53.074;6.646;2023-04-15T06:10:29;18.17;;;11.30;;
59145;SDS011;44928;53.074;6.646;2023-04-15T06:12:55;17.20;;;10.73;;
59145;SDS011;44928;53.074;6.646;2023-04-15T06:15:20;19.85;;;10.57;;
59145;SDS011;44928;53.074;6.646;2023-04-15T06:17:47;16.58;;;9.77;;
59145;SDS011;44928;53.074;6.646;2023-04-15T06:20:12;18.10;;;10.85;;
59145;SDS011;44928;53.074;6.646;2023-04-15T06:22:38;21.00;;;12.18;;
59145;SDS011;44928;53.074;6.646;2023-04-15T06:25:05;19.40;;;12.48;;
59145;SDS011;44928;53.074;6.646;2023-04-15T06:27:32;18.95;;;11.32;;
59145;SDS011;44928;53.074;6.646;2023-04-15T06:29:58;20.27;;;11.77;;
59145;SDS011;44928;53.074;6.646;2023-04-15T06:32:24;19.48;;;12.00;;
59145;SDS011;44928;53.074;6.646;2023-04-15T06:34:50;19.17;;;12.55;;
59145;SDS011;44928;53.074;6.646;2023-04-15T06:37:16;21.27;;;12.40;;
59145;SDS011;44928;53.074;6.646;2023-04-15T06:39:42;21.20;;;12.35;;
59145;SDS011;44928;53.074;6.646;2023-04-15T06:42:08;21.60;;;12.57;;
59145;SDS011;44928;53.074;6.646;2023-04-15T06:44:35;19.77;;;12.63;;
59145;SDS011;44928;53.074;6.646;2023-04-15T06:47:01;22.15;;;12.32;;
59145;SDS011;44928;53.074;6.646;2023-04-15T06:49:27;20.10;;;11.60;;
59145;SDS011;44928;53.074;6.646;2023-04-15T06:51:53;22.85;;;12.60;;
59145;SDS011;44928;53.074;6.646;2023-04-15T06:54:19;20.02;;;11.73;;
59145;SDS011;44928;53.074;6.646;2023-04-15T06:56:45;21.17;;;12.38;;
59145;SDS011;44928;53.074;6.646;2023-04-15T06:59:12;20.67;;;11.63;;
59145;SDS011;44928;53.074;6.646;2023-04-15T07:01:41;19.83;;;11.02;;
59145;SDS011;44928;53.074;6.646;2023-04-15T07:04:06;18.70;;;11.13;;
59145;SDS011;44928;53.074;6.646;2023-04-15T07:06:32;15.68;;;9.45;;
59145;SDS011;44928;53.074;6.646;2023-04-15T07:08:59;15.90;;;10.07;;
59145;SDS011;44928;53.074;6.646;2023-04-15T07:11:25;18.45;;;10.07;;
59145;SDS011;44928;53.074;6.646;2023-04-15T07:13:51;17.98;;;9.95;;
59145;SDS011;44928;53.074;6.646;2023-04-15T07:16:17;16.40;;;9.80;;
59145;SDS011;44928;53.074;6.646;2023-04-15T07:18:43;16.35;;;10.30;;
59145;SDS011;44928;53.074;6.646;2023-04-15T07:21:09;19.33;;;9.50;;
59145;SDS011;44928;53.074;6.646;2023-04-15T07:23:35;15.48;;;9.05;;
59145;SDS011;44928;53.074;6.646;2023-04-15T07:26:01;15.55;;;9.63;;
59145;SDS011;44928;53.074;6.646;2023-04-15T07:28:27;15.63;;;8.95;;
59145;SDS011;44928;53.074;6.646;2023-04-15T07:30:53;14.05;;;8.18;;
59145;SDS011;44928;53.074;6.646;2023-04-15T07:33:21;15.05;;;9.05;;
59145;SDS011;44928;53.074;6.646;2023-04-15T07:35:47;15.02;;;8.15;;
59145;SDS011;44928;53.074;6.646;2023-04-15T07:38:13;13.60;;;8.23;;
59145;SDS011;44928;53.074;6.646;2023-04-15T07:40:39;16.38;;;8.27;;
59145;SDS011;44928;53.074;6.646;2023-04-15T07:43:05;13.98;;;7.82;;
59145;SDS011;44928;53.074;6.646;2023-04-15T07:45:31;14.45;;;7.72;;
59145;SDS011;44928;53.074;6.646;2023-04-15T07:47:56;14.40;;;8.35;;
59145;SDS011;44928;53.074;6.646;2023-04-15T07:50:22;14.18;;;7.85;;
59145;SDS011;44928;53.074;6.646;2023-04-15T07:52:49;16.85;;;8.45;;
59145;SDS011;44928;53.074;6.646;2023-04-15T07:55:15;14.07;;;7.80;;
59145;SDS011;44928;53.074;6.646;2023-04-15T07:57:44;15.90;;;7.22;;
59145;SDS011;44928;53.074;6.646;2023-04-15T08:00:11;12.50;;;6.35;;
59145;SDS011;44928;53.074;6.646;2023-04-15T08:02:38;11.07;;;6.10;;
59145;SDS011;44928;53.074;6.646;2023-04-15T08:05:04;11.18;;;6.85;;
59145;SDS011;44928;53.074;6.646;2023-04-15T08:07:31;11.45;;;6.50;;
59145;SDS011;44928;53.074;6.646;2023-04-15T08:09:57;12.15;;;6.50;;
59145;SDS011;44928;53.074;6.646;2023-04-15T08:12:23;12.20;;;6.15;;
59145;SDS011;44928;53.074;6.646;2023-04-15T08:14:50;12.25;;;5.80;;
59145;SDS011;44928;53.074;6.646;2023-04-15T08:17:16;10.88;;;5.45;;
59145;SDS011;44928;53.074;6.646;2023-04-15T08:19:42;12.38;;;5.40;;
59145;SDS011;44928;53.074;6.646;2023-04-15T08:22:08;12.20;;;6.05;;
59145;SDS011;44928;53.074;6.646;2023-04-15T08:24:36;11.77;;;5.88;;
59145;SDS011;44928;53.074;6.646;2023-04-15T08:27:02;11.02;;;5.55;;
59145;SDS011;44928;53.074;6.646;2023-04-15T08:29:30;10.93;;;5.95;;
59145;SDS011;44928;53.074;6.646;2023-04-15T08:31:56;11.63;;;5.75;;
59145;SDS011;44928;53.074;6.646;2023-04-15T08:34:23;12.75;;;6.07;;
59145;SDS011;44928;53.074;6.646;2023-04-15T08:36:49;12.18;;;5.60;;
59145;SDS011;44928;53.074;6.646;2023-04-15T08:39:15;11.20;;;5.00;;
59145;SDS011;44928;53.074;6.646;2023-04-15T08:41:45;10.35;;;5.45;;
59145;SDS011;44928;53.074;6.646;2023-04-15T08:44:13;10.32;;;5.05;;
59145;SDS011;44928;53.074;6.646;2023-04-15T08:46:39;9.38;;;4.40;;
59145;SDS011;44928;53.074;6.646;2023-04-15T08:49:08;10.73;;;4.50;;
59145;SDS011;44928;53.074;6.646;2023-04-15T08:51:36;8.95;;;4.05;;
59145;SDS011;44928;53.074;6.646;2023-04-15T08:54:04;10.50;;;4.22;;
59145;SDS011;44928;53.074;6.646;2023-04-15T08:56:30;10.57;;;4.30;;
59145;SDS011;44928;53.074;6.646;2023-04-15T08:58:57;10.98;;;4.13;;
59145;SDS011;44928;53.074;6.646;2023-04-15T09:01:24;10.07;;;3.50;;
59145;SDS011;44928;53.074;6.646;2023-04-15T09:03:50;11.30;;;3.58;;
59145;SDS011;44928;53.074;6.646;2023-04-15T09:06:19;9.48;;;3.63;;
59145;SDS011;44928;53.074;6.646;2023-04-15T09:08:45;7.80;;;2.50;;
59145;SDS011;44928;53.074;6.646;2023-04-15T09:11:11;6.25;;;2.20;;
59145;SDS011;44928;53.074;6.646;2023-04-15T09:13:37;6.13;;;2.08;;
59145;SDS011;44928;53.074;6.646;2023-04-15T09:16:04;6.13;;;1.80;;
59145;SDS011;44928;53.074;6.646;2023-04-15T09:18:31;6.35;;;1.60;;
59145;SDS011;44928;53.074;6.646;2023-04-15T09:21:09;5.47;;;1.73;;
59145;SDS011;44928;53.074;6.646;2023-04-15T09:23:36;6.38;;;1.83;;
59145;SDS011;44928;53.074;6.646;2023-04-15T09:26:04;4.43;;;1.60;;
59145;SDS011;44928;53.074;6.646;2023-04-15T09:28:30;6.05;;;1.95;;
59145;SDS011;44928;53.074;6.646;2023-04-15T09:30:57;6.22;;;1.92;;
59145;SDS011;44928;53.074;6.646;2023-04-15T09:33:24;6.00;;;1.60;;
59145;SDS011;44928;53.074;6.646;2023-04-15T09:38:24;4.88;;;1.45;;
59145;SDS011;44928;53.074;6.646;2023-04-15T09:40:50;5.93;;;1.65;;
59145;SDS011;44928;53.074;6.646;2023-04-15T09:43:16;7.80;;;1.73;;
59145;SDS011;44928;53.074;6.646;2023-04-15T09:45:50;6.57;;;1.63;;
59145;SDS011;44928;53.074;6.646;2023-04-15T09:48:24;4.63;;;1.70;;
59145;SDS011;44928;53.074;6.646;2023-04-15T09:50:58;6.40;;;1.73;;
59145;SDS011;44928;53.074;6.646;2023-04-15T09:53:25;7.20;;;1.85;;
59145;SDS011;44928;53.074;6.646;2023-04-15T09:55:53;4.97;;;1.52;;
59145;SDS011;44928;53.074;6.646;2023-04-15T09:58:20;7.07;;;2.03;;
59145;SDS011;44928;53.074;6.646;2023-04-15T10:00:48;5.53;;;1.77;;
59145;SDS011;44928;53.074;6.646;2023-04-15T10:03:18;5.82;;;1.90;;
59145;SDS011;44928;53.074;6.646;2023-04-15T10:05:46;5.32;;;1.70;;
59145;SDS011;44928;53.074;6.646;2023-04-15T10:08:15;5.38;;;1.77;;
59145;SDS011;44928;53.074;6.646;2023-04-15T10:10:44;6.07;;;1.67;;
59145;SDS011;44928;53.074;6.646;2023-04-15T10:13:19;7.40;;;1.73;;
59145;SDS011;44928;53.074;6.646;2023-04-15T10:15:58;6.35;;;1.70;;
59145;SDS011;44928;53.074;6.646;2023-04-15T10:18:37;4.78;;;1.73;;
59145;SDS011;44928;53.074;6.646;2023-04-15T10:21:07;5.28;;;1.70;;
59145;SDS011;44928;53.074;6.646;2023-04-15T10:23:34;5.30;;;1.63;;
59145;SDS011;44928;53.074;6.646;2023-04-15T10:26:00;5.90;;;1.70;;
59145;SDS011;44928;53.074;6.646;2023-04-15T10:28:28;5.32;;;1.65;;
59145;SDS011;44928;53.074;6.646;2023-04-15T10:30:54;4.10;;;1.38;;
59145;SDS011;44928;53.074;6.646;2023-04-15T10:33:22;4.90;;;1.58;;
59145;SDS011;44928;53.074;6.646;2023-04-15T10:35:49;6.20;;;1.60;;
59145;SDS011;44928;53.074;6.646;2023-04-15T10:38:32;4.30;;;1.58;;
59145;SDS011;44928;53.074;6.646;2023-04-15T10:43:47;6.50;;;1.70;;
59145;SDS011;44928;53.074;6.646;2023-04-15T10:48:51;5.38;;;1.90;;
59145;SDS011;44928;53.074;6.646;2023-04-15T10:51:28;5.95;;;1.73;;
59145;SDS011;44928;53.074;6.646;2023-04-15T10:53:55;6.13;;;1.75;;
59145;SDS011;44928;53.074;6.646;2023-04-15T10:56:22;7.97;;;1.95;;
59145;SDS011;44928;53.074;6.646;2023-04-15T10:58:48;5.30;;;2.10;;
59145;SDS011;44928;53.074;6.646;2023-04-15T11:01:14;7.18;;;1.85;;
59145;SDS011;44928;53.074;6.646;2023-04-15T11:03:41;5.75;;;1.70;;
59145;SDS011;44928;53.074;6.646;2023-04-15T11:06:08;9.27;;;2.20;;
59145;SDS011;44928;53.074;6.646;2023-04-15T11:08:53;7.07;;;2.08;;
59145;SDS011;44928;53.074;6.646;2023-04-15T11:14:33;6.82;;;2.20;;
59145;SDS011;44928;53.074;6.646;2023-04-15T11:17:03;13.45;;;2.50;;
59145;SDS011;44928;53.074;6.646;2023-04-15T11:19:36;5.82;;;1.70;;
59145;SDS011;44928;53.074;6.646;2023-04-15T11:22:09;10.20;;;2.38;;
59145;SDS011;44928;53.074;6.646;2023-04-15T11:24:36;7.43;;;2.10;;
59145;SDS011;44928;53.074;6.646;2023-04-15T11:27:19;9.13;;;1.98;;
59145;SDS011;44928;53.074;6.646;2023-04-15T11:29:45;8.05;;;2.03;;
59145;SDS011;44928;53.074;6.646;2023-04-15T11:32:11;7.40;;;1.65;;
59145;SDS011;44928;53.074;6.646;2023-04-15T11:34:37;7.50;;;2.15;;
59145;SDS011;44928;53.074;6.646;2023-04-15T11:37:03;7.07;;;2.20;;
59145;SDS011;44928;53.074;6.646;2023-04-15T11:39:30;12.50;;;2.28;;
59145;SDS011;44928;53.074;6.646;2023-04-15T11:41:56;7.07;;;2.08;;
59145;SDS011;44928;53.074;6.646;2023-04-15T11:44:22;8.20;;;1.75;;
59145;SDS011;44928;53.074;6.646;2023-04-15T11:46:48;7.07;;;2.08;;
59145;SDS011;44928;53.074;6.646;2023-04-15T11:49:29;8.95;;;2.03;;
59145;SDS011;44928;53.074;6.646;2023-04-15T11:51:58;6.57;;;1.67;;
59145;SDS011;44928;53.074;6.646;2023-04-15T11:54:24;7.50;;;1.60;;
59145;SDS011;44928;53.074;6.646;2023-04-15T11:56:50;6.82;;;1.67;;
59145;SDS011;44928;53.074;6.646;2023-04-15T11:59:17;9.30;;;1.67;;
59145;SDS011;44928;53.074;6.646;2023-04-15T12:01:43;8.00;;;1.70;;
59145;SDS011;44928;53.074;6.646;2023-04-15T12:04:15;9.27;;;2.53;;
59145;SDS011;44928;53.074;6.646;2023-04-15T12:06:44;6.70;;;1.60;;
59145;SDS011;44928;53.074;6.646;2023-04-15T12:09:16;5.38;;;1.75;;
59145;SDS011;44928;53.074;6.646;2023-04-15T12:11:48;11.68;;;2.10;;
59145;SDS011;44928;53.074;6.646;2023-04-15T12:16:44;10.75;;;1.85;;
59145;SDS011;44928;53.074;6.646;2023-04-15T12:19:13;8.27;;;1.90;;
59145;SDS011;44928;53.074;6.646;2023-04-15T12:21:43;8.95;;;2.17;;
59145;SDS011;44928;53.074;6.646;2023-04-15T12:24:10;8.30;;;1.92;;
59145;SDS011;44928;53.074;6.646;2023-04-15T12:29:09;9.20;;;2.00;;
59145;SDS011;44928;53.074;6.646;2023-04-15T12:31:42;11.73;;;2.10;;
59145;SDS011;44928;53.074;6.646;2023-04-15T12:34:27;7.45;;;1.60;;
59145;SDS011;44928;53.074;6.646;2023-04-15T12:36:55;10.80;;;1.92;;
59145;SDS011;44928;53.074;6.646;2023-04-15T12:39:25;7.35;;;1.73;;
59145;SDS011;44928;53.074;6.646;2023-04-15T12:41:52;11.05;;;2.72;;
59145;SDS011;44928;53.074;6.646;2023-04-15T12:44:18;7.80;;;1.70;;
59145;SDS011;44928;53.074;6.646;2023-04-15T12:46:46;12.52;;;1.80;;
59145;SDS011;44928;53.074;6.646;2023-04-15T12:49:12;9.45;;;1.77;;
59145;SDS011;44928;53.074;6.646;2023-04-15T12:51:44;6.97;;;1.50;;
59145;SDS011;44928;53.074;6.646;2023-04-15T12:54:11;6.60;;;1.38;;
59145;SDS011;44928;53.074;6.646;2023-04-15T12:56:37;8.30;;;1.67;;
59145;SDS011;44928;53.074;6.646;2023-04-15T12:59:02;6.63;;;1.42;;
59145;SDS011;44928;53.074;6.646;2023-04-15T13:01:28;7.22;;;1.80;;
59145;SDS011;44928;53.074;6.646;2023-04-15T13:03:54;12.02;;;2.25;;
59145;SDS011;44928;53.074;6.646;2023-04-15T13:06:20;9.27;;;1.70;;
59145;SDS011;44928;53.074;6.646;2023-04-15T13:08:48;10.18;;;1.67;;
59145;SDS011;44928;53.074;6.646;2023-04-15T13:11:13;9.55;;;1.60;;
59145;SDS011;44928;53.074;6.646;2023-04-15T13:13:39;8.63;;;1.80;;
59145;SDS011;44928;53.074;6.646;2023-04-15T13:16:05;7.72;;;1.73;;
59145;SDS011;44928;53.074;6.646;2023-04-15T13:18:31;8.95;;;1.60;;
59145;SDS011;44928;53.074;6.646;2023-04-15T13:20:58;9.60;;;2.03;;
59145;SDS011;44928;53.074;6.646;2023-04-15T13:23:25;7.60;;;1.58;;
59145;SDS011;44928;53.074;6.646;2023-04-15T13:25:51;7.47;;;1.48;;
59145;SDS011;44928;53.074;6.646;2023-04-15T13:28:17;7.45;;;1.60;;
59145;SDS011;44928;53.074;6.646;2023-04-15T13:30:42;9.85;;;1.80;;
59145;SDS011;44928;53.074;6.646;2023-04-15T13:33:10;8.52;;;1.52;;
59145;SDS011;44928;53.074;6.646;2023-04-15T13:35:36;7.75;;;1.60;;
59145;SDS011;44928;53.074;6.646;2023-04-15T13:38:01;9.63;;;1.60;;
59145;SDS011;44928;53.074;6.646;2023-04-15T13:40:27;7.30;;;1.50;;
59145;SDS011;44928;53.074;6.646;2023-04-15T13:42:53;10.35;;;2.03;;
59145;SDS011;44928;53.074;6.646;2023-04-15T13:45:20;10.15;;;2.67;;
59145;SDS011;44928;53.074;6.646;2023-04-15T13:47:46;6.32;;;1.40;;
59145;SDS011;44928;53.074;6.646;2023-04-15T13:50:11;8.73;;;1.65;;
59145;SDS011;44928;53.074;6.646;2023-04-15T13:52:37;8.18;;;1.50;;
59145;SDS011;44928;53.074;6.646;2023-04-15T13:55:04;8.07;;;1.30;;
59145;SDS011;44928;53.074;6.646;2023-04-15T13:57:30;6.20;;;1.20;;
59145;SDS011;44928;53.074;6.646;2023-04-15T13:59:56;7.53;;;1.50;;
59145;SDS011;44928;53.074;6.646;2023-04-15T14:02:22;6.68;;;1.40;;
59145;SDS011;44928;53.074;6.646;2023-04-15T14:04:48;7.10;;;1.45;;
59145;SDS011;44928;53.074;6.646;2023-04-15T14:07:14;9.73;;;1.88;;
59145;SDS011;44928;53.074;6.646;2023-04-15T14:09:40;6.90;;;1.45;;
59145;SDS011;44928;53.074;6.646;2023-04-15T14:12:06;12.00;;;5.47;;
59145;SDS011;44928;53.074;6.646;2023-04-15T14:14:31;10.57;;;2.65;;
59145;SDS011;44928;53.074;6.646;2023-04-15T14:16:57;7.15;;;1.35;;
59145;SDS011;44928;53.074;6.646;2023-04-15T14:19:23;9.65;;;2.33;;
59145;SDS011;44928;53.074;6.646;2023-04-15T14:21:49;11.02;;;1.83;;
59145;SDS011;44928;53.074;6.646;2023-04-15T14:24:15;7.38;;;2.00;;
59145;SDS011;44928;53.074;6.646;2023-04-15T14:26:41;9.82;;;2.03;;
59145;SDS011;44928;53.074;6.646;2023-04-15T14:29:08;10.60;;;2.33;;
59145;SDS011;44928;53.074;6.646;2023-04-15T14:31:35;10.90;;;3.10;;
59145;SDS011;44928;53.074;6.646;2023-04-15T14:34:01;10.25;;;1.63;;
59145;SDS011;44928;53.074;6.646;2023-04-15T14:36:27;6.60;;;1.95;;
59145;SDS011;44928;53.074;6.646;2023-04-15T14:38:53;8.65;;;2.15;;
59145;SDS011;44928;53.074;6.646;2023-04-15T14:41:19;6.32;;;1.83;;
59145;SDS011;44928;53.074;6.646;2023-04-15T14:43:45;9.63;;;1.85;;
59145;SDS011;44928;53.074;6.646;2023-04-15T14:46:10;8.07;;;1.73;;
59145;SDS011;44928;53.074;6.646;2023-04-15T14:48:38;9.73;;;2.25;;
59145;SDS011;44928;53.074;6.646;2023-04-15T14:51:04;12.70;;;2.10;;
59145;SDS011;44928;53.074;6.646;2023-04-15T14:53:30;7.15;;;1.50;;
59145;SDS011;44928;53.074;6.646;2023-04-15T14:55:56;9.95;;;2.40;;